TimeAKDT,TemperatureF,Dew PointF,Humidity,Sea Level PressureIn,VisibilityMPH,Wind Direction,Wind SpeedMPH,Gust SpeedMPH,PrecipitationIn,Events,Conditions,WindDirDegrees,DateUTC
12:16 AM,44.6,39.2,81,30.01,10.0,East,4.6,-,N/A,,Overcast,100,2013-05-06 08:16:00
12:36 AM,44.6,41.0,87,30.01,10.0,East,3.5,-,N/A,,Overcast,80,2013-05-06 08:36:00
12:56 AM,44.6,39.2,81,30.01,10.0,Calm,Calm,-,N/A,,Overcast,0,2013-05-06 08:56:00
1:16 AM,44.6,41.0,87,30.01,10.0,ESE,3.5,-,N/A,,Overcast,120,2013-05-06 09:16:00
1:36 AM,44.6,39.2,81,30.01,10.0,East,4.6,-,N/A,,Mostly Cloudy,100,2013-05-06 09:36:00
1:56 AM,44.6,41.0,87,30.01,10.0,Calm,Calm,-,N/A,,Overcast,0,2013-05-06 09:56:00
2:16 AM,44.6,39.2,81,30.01,10.0,Calm,Calm,-,N/A,,Overcast,0,2013-05-06 10:16:00
2:36 AM,44.6,39.2,81,30.01,10.0,ESE,3.5,-,N/A,,Overcast,110,2013-05-06 10:36:00
2:56 AM,44.6,41.0,87,30.02,10.0,Calm,Calm,-,N/A,,Overcast,0,2013-05-06 10:56:00
3:16 AM,44.6,41.0,87,30.02,10.0,ESE,3.5,-,N/A,,Overcast,110,2013-05-06 11:16:00
3:36 AM,44.6,41.0,87,30.02,10.0,ESE,3.5,-,N/A,,Overcast,110,2013-05-06 11:36:00
3:56 AM,44.6,41.0,87,30.02,10.0,ESE,3.5,-,N/A,,Overcast,120,2013-05-06 11:56:00
4:16 AM,44.6,41.0,87,30.03,10.0,Calm,Calm,-,N/A,,Overcast,0,2013-05-06 12:16:00
4:36 AM,46.4,39.2,76,30.03,10.0,Calm,Calm,-,N/A,,Overcast,0,2013-05-06 12:36:00
4:56 AM,46.4,39.2,76,30.03,10.0,Calm,Calm,-,N/A,,Overcast,0,2013-05-06 12:56:00
5:16 AM,44.6,41.0,87,30.03,10.0,Calm,Calm,-,N/A,,Overcast,0,2013-05-06 13:16:00
5:36 AM,-9999,-9999,N/A,-9999,-9999.0,North,-9999.0,-,N/A,,Unknown,0,2013-05-06 13:36:00
6:16 AM,-9999,-9999,N/A,-9999,-9999.0,North,-9999.0,-,N/A,,Unknown,0,2013-05-06 14:16:00
6:56 AM,46.4,39.2,76,30.06,10.0,Calm,Calm,-,N/A,,Mostly Cloudy,0,2013-05-06 14:56:00
7:16 AM,46.4,37.4,71,30.06,10.0,SW,3.5,-,N/A,,Mostly Cloudy,220,2013-05-06 15:16:00
7:36 AM,46.4,39.2,76,30.07,10.0,Calm,Calm,-,N/A,,Mostly Cloudy,0,2013-05-06 15:36:00
7:56 AM,46.4,37.4,71,30.08,10.0,Calm,Calm,-,N/A,,Mostly Cloudy,0,2013-05-06 15:56:00
8:16 AM,46.4,39.2,76,30.08,10.0,East,3.5,-,N/A,,Mostly Cloudy,90,2013-05-06 16:16:00
8:36 AM,48.2,39.2,71,30.09,10.0,Calm,Calm,-,N/A,,Mostly Cloudy,0,2013-05-06 16:36:00
8:56 AM,48.2,39.2,71,30.09,10.0,ENE,4.6,-,N/A,,Mostly Cloudy,60,2013-05-06 16:56:00
9:16 AM,48.2,39.2,71,30.10,10.0,ENE,5.8,-,N/A,,Mostly Cloudy,70,2013-05-06 17:16:00
9:36 AM,48.2,39.2,71,30.11,10.0,East,8.1,-,N/A,,Mostly Cloudy,90,2013-05-06 17:36:00
9:56 AM,50.0,39.2,66,30.11,10.0,East,8.1,-,N/A,,Mostly Cloudy,80,2013-05-06 17:56:00
10:16 AM,-9999,-9999,N/A,30.11,10.0,East,4.6,-,N/A,,Mostly Cloudy,80,2013-05-06 18:16:00
10:56 AM,51.8,37.4,58,30.12,10.0,NE,6.9,-,N/A,,Mostly Cloudy,50,2013-05-06 18:56:00
11:16 AM,48.2,37.4,66,30.13,10.0,NNE,6.9,-,N/A,,Mostly Cloudy,30,2013-05-06 19:16:00
11:56 AM,51.8,37.4,58,30.13,10.0,NNE,8.1,-,N/A,,Scattered Clouds,30,2013-05-06 19:56:00
12:16 PM,51.8,37.4,58,30.13,10.0,NNE,10.4,-,N/A,,Scattered Clouds,20,2013-05-06 20:16:00
12:36 PM,51.8,37.4,58,30.14,10.0,NNE,9.2,-,N/A,,Scattered Clouds,20,2013-05-06 20:36:00
12:56 PM,51.8,37.4,58,30.14,10.0,NNE,10.4,-,N/A,,Mostly Cloudy,20,2013-05-06 20:56:00
1:16 PM,51.8,39.2,62,30.15,10.0,NNE,10.4,-,N/A,,Mostly Cloudy,30,2013-05-06 21:16:00
1:36 PM,51.8,37.4,58,30.15,10.0,NNE,8.1,-,N/A,,Mostly Cloudy,20,2013-05-06 21:36:00
1:56 PM,51.8,37.4,58,30.16,10.0,NNE,9.2,-,N/A,,Overcast,20,2013-05-06 21:56:00
2:16 PM,51.8,37.4,58,30.17,10.0,NNE,10.4,-,N/A,,Overcast,30,2013-05-06 22:16:00
2:56 PM,51.8,37.4,58,30.17,10.0,NE,8.1,-,N/A,,Scattered Clouds,40,2013-05-06 22:56:00
3:16 PM,51.8,37.4,58,30.16,10.0,NNE,10.4,-,N/A,,Scattered Clouds,20,2013-05-06 23:16:00
3:36 PM,51.8,37.4,58,30.17,10.0,NNE,10.4,-,N/A,,Scattered Clouds,20,2013-05-06 23:36:00
3:56 PM,53.6,37.4,54,30.17,10.0,NNE,9.2,-,N/A,,Scattered Clouds,30,2013-05-06 23:56:00
4:16 PM,53.6,37.4,54,30.17,10.0,NNE,8.1,-,N/A,,Scattered Clouds,20,2013-05-07 00:16:00
4:36 PM,53.6,37.4,54,30.17,10.0,NNE,9.2,-,N/A,,Scattered Clouds,20,2013-05-07 00:36:00
4:56 PM,51.8,37.4,58,30.17,10.0,NE,6.9,-,N/A,,Scattered Clouds,40,2013-05-07 00:56:00
5:16 PM,51.8,37.4,58,30.17,10.0,NNE,9.2,-,N/A,,Scattered Clouds,30,2013-05-07 01:16:00
5:55 PM,53.6,46.4,77,30.16,10.0,ESE,5.8,-,N/A,,Scattered Clouds,120,2013-05-07 01:55:00
6:56 PM,51.8,37.4,58,30.17,10.0,ENE,8.1,-,N/A,,Partly Cloudy,60,2013-05-07 02:56:00
7:16 PM,51.8,37.4,58,30.17,10.0,East,5.8,-,N/A,,Partly Cloudy,90,2013-05-07 03:16:00
7:36 PM,50.0,37.4,62,30.17,10.0,East,5.8,-,N/A,,Partly Cloudy,100,2013-05-07 03:36:00
7:56 PM,48.2,37.4,66,30.17,10.0,SE,3.5,-,N/A,,Partly Cloudy,130,2013-05-07 03:56:00
8:16 PM,46.4,37.4,71,30.17,10.0,ESE,6.9,-,N/A,,Partly Cloudy,120,2013-05-07 04:16:00
8:36 PM,46.4,37.4,71,30.18,10.0,SE,6.9,-,N/A,,Partly Cloudy,130,2013-05-07 04:36:00
8:56 PM,44.6,37.4,76,30.18,10.0,SE,4.6,-,N/A,,Clear,130,2013-05-07 04:56:00
9:16 PM,44.6,35.6,71,30.19,10.0,SE,5.8,-,N/A,,Clear,130,2013-05-07 05:16:00
9:36 PM,42.8,35.6,76,30.19,10.0,SE,4.6,-,N/A,,Clear,130,2013-05-07 05:36:00
9:56 PM,41.0,35.6,81,30.19,10.0,South,3.5,-,N/A,,Clear,170,2013-05-07 05:56:00
10:16 PM,41.0,35.6,81,30.20,10.0,SSE,5.8,-,N/A,,Clear,150,2013-05-07 06:16:00
10:36 PM,41.0,35.6,81,30.20,10.0,SE,4.6,-,N/A,,Clear,140,2013-05-07 06:36:00
10:56 PM,39.2,35.6,87,30.20,10.0,ESE,5.8,-,N/A,,Clear,120,2013-05-07 06:56:00
11:16 PM,41.0,35.6,81,30.20,10.0,SE,4.6,-,N/A,,Clear,130,2013-05-07 07:16:00
11:36 PM,39.2,35.6,87,30.20,10.0,ESE,3.5,-,N/A,,Clear,120,2013-05-07 07:36:00
11:56 PM,39.2,35.6,87,30.20,10.0,Calm,Calm,-,N/A,,Clear,0,2013-05-07 07:56:00